sensor_id;sensor_type;location;lat;lon;timestamp;P1;durP1;ratioP1;P2;durP2;ratioP2
9759;SDS011;4919;48.792;9.202;2023-05-13T00:01:49;2.53;;;1.90;;
9759;SDS011;4919;48.792;9.202;2023-05-13T00:04:33;1.87;;;1.67;;
9759;SDS011;4919;48.792;9.202;2023-05-13T00:07:18;1.70;;;1.60;;
9759;SDS011;4919;48.792;9.202;2023-05-13T00:10:03;1.83;;;1.63;;
9759;SDS011;4919;48.792;9.202;2023-05-13T00:12:48;3.80;;;1.80;;
9759;SDS011;4919;48.792;9.202;2023-05-13T00:15:33;1.83;;;1.70;;
9759;SDS011;4919;48.792;9.202;2023-05-13T00:18:18;3.50;;;1.70;;
9759;SDS011;4919;48.792;9.202;2023-05-13T00:21:03;1.60;;;1.37;;
9759;SDS011;4919;48.792;9.202;2023-05-13T00:23:48;1.90;;;1.70;;
9759;SDS011;4919;48.792;9.202;2023-05-13T00:26:33;1.80;;;1.60;;
9759;SDS011;4919;48.792;9.202;2023-05-13T00:29:17;1.90;;;1.67;;
9759;SDS011;4919;48.792;9.202;2023-05-13T00:32:02;2.47;;;1.77;;
9759;SDS011;4919;48.792;9.202;2023-05-13T00:34:47;2.63;;;1.67;;
9759;SDS011;4919;48.792;9.202;2023-05-13T00:37:32;1.50;;;1.40;;
9759;SDS011;4919;48.792;9.202;2023-05-13T00:40:21;2.80;;;1.37;;
9759;SDS011;4919;48.792;9.202;2023-05-13T00:43:07;3.27;;;1.93;;
9759;SDS011;4919;48.792;9.202;2023-05-13T00:45:52;2.70;;;1.90;;
9759;SDS011;4919;48.792;9.202;2023-05-13T00:48:37;1.67;;;1.57;;
9759;SDS011;4919;48.792;9.202;2023-05-13T00:51:21;2.13;;;1.70;;
9759;SDS011;4919;48.792;9.202;2023-05-13T00:54:06;1.70;;;1.60;;
9759;SDS011;4919;48.792;9.202;2023-05-13T00:56:51;1.80;;;1.70;;
9759;SDS011;4919;48.792;9.202;2023-05-13T00:59:36;2.57;;;1.90;;
9759;SDS011;4919;48.792;9.202;2023-05-13T01:02:26;2.63;;;1.80;;
9759;SDS011;4919;48.792;9.202;2023-05-13T01:08:31;1.87;;;1.63;;
9759;SDS011;4919;48.792;9.202;2023-05-13T01:11:21;2.30;;;1.90;;
9759;SDS011;4919;48.792;9.202;2023-05-13T01:14:14;2.30;;;1.67;;
9759;SDS011;4919;48.792;9.202;2023-05-13T01:17:10;3.33;;;1.77;;
9759;SDS011;4919;48.792;9.202;2023-05-13T01:20:02;1.73;;;1.53;;
9759;SDS011;4919;48.792;9.202;2023-05-13T01:22:47;3.13;;;2.00;;
9759;SDS011;4919;48.792;9.202;2023-05-13T01:25:32;1.50;;;1.40;;
9759;SDS011;4919;48.792;9.202;2023-05-13T01:28:17;2.10;;;1.80;;
9759;SDS011;4919;48.792;9.202;2023-05-13T01:31:02;2.20;;;1.70;;
9759;SDS011;4919;48.792;9.202;2023-05-13T01:33:47;5.33;;;1.70;;
9759;SDS011;4919;48.792;9.202;2023-05-13T01:36:33;2.43;;;1.90;;
9759;SDS011;4919;48.792;9.202;2023-05-13T01:39:18;2.77;;;1.80;;
9759;SDS011;4919;48.792;9.202;2023-05-13T01:42:03;2.00;;;1.67;;
9759;SDS011;4919;48.792;9.202;2023-05-13T01:44:50;2.10;;;1.70;;
9759;SDS011;4919;48.792;9.202;2023-05-13T01:47:35;4.03;;;1.83;;
9759;SDS011;4919;48.792;9.202;2023-05-13T01:50:19;1.90;;;1.63;;
9759;SDS011;4919;48.792;9.202;2023-05-13T01:53:04;1.90;;;1.70;;
9759;SDS011;4919;48.792;9.202;2023-05-13T01:55:49;2.20;;;1.93;;
9759;SDS011;4919;48.792;9.202;2023-05-13T01:58:34;2.00;;;1.63;;
9759;SDS011;4919;48.792;9.202;2023-05-13T02:01:19;3.00;;;2.03;;
9759;SDS011;4919;48.792;9.202;2023-05-13T02:04:04;3.10;;;1.80;;
9759;SDS011;4919;48.792;9.202;2023-05-13T02:06:49;1.73;;;1.63;;
9759;SDS011;4919;48.792;9.202;2023-05-13T02:09:33;1.70;;;1.60;;
9759;SDS011;4919;48.792;9.202;2023-05-13T02:12:18;2.20;;;1.97;;
9759;SDS011;4919;48.792;9.202;2023-05-13T02:15:03;1.77;;;1.57;;
9759;SDS011;4919;48.792;9.202;2023-05-13T02:17:49;2.30;;;2.10;;
9759;SDS011;4919;48.792;9.202;2023-05-13T02:20:33;2.43;;;1.97;;
9759;SDS011;4919;48.792;9.202;2023-05-13T02:23:18;2.40;;;2.00;;
9759;SDS011;4919;48.792;9.202;2023-05-13T02:26:03;2.63;;;2.10;;
9759;SDS011;4919;48.792;9.202;2023-05-13T02:28:48;2.60;;;1.70;;
9759;SDS011;4919;48.792;9.202;2023-05-13T02:31:33;2.70;;;2.17;;
9759;SDS011;4919;48.792;9.202;2023-05-13T02:34:18;3.10;;;2.37;;
9759;SDS011;4919;48.792;9.202;2023-05-13T02:37:03;1.73;;;1.63;;
9759;SDS011;4919;48.792;9.202;2023-05-13T02:39:48;10.20;;;1.47;;
9759;SDS011;4919;48.792;9.202;2023-05-13T02:42:33;4.63;;;1.80;;
9759;SDS011;4919;48.792;9.202;2023-05-13T02:45:18;1.57;;;1.47;;
9759;SDS011;4919;48.792;9.202;2023-05-13T02:48:03;1.77;;;1.67;;
9759;SDS011;4919;48.792;9.202;2023-05-13T02:50:48;1.70;;;1.60;;
9759;SDS011;4919;48.792;9.202;2023-05-13T02:53:33;2.23;;;1.80;;
9759;SDS011;4919;48.792;9.202;2023-05-13T02:56:18;2.50;;;1.60;;
9759;SDS011;4919;48.792;9.202;2023-05-13T02:59:02;2.07;;;1.83;;
9759;SDS011;4919;48.792;9.202;2023-05-13T03:01:47;1.77;;;1.57;;
9759;SDS011;4919;48.792;9.202;2023-05-13T03:04:32;2.07;;;1.67;;
9759;SDS011;4919;48.792;9.202;2023-05-13T03:07:17;1.90;;;1.50;;
9759;SDS011;4919;48.792;9.202;2023-05-13T03:10:02;2.60;;;1.70;;
9759;SDS011;4919;48.792;9.202;2023-05-13T03:12:47;3.10;;;2.07;;
9759;SDS011;4919;48.792;9.202;2023-05-13T03:15:33;1.80;;;1.70;;
9759;SDS011;4919;48.792;9.202;2023-05-13T03:18:18;1.80;;;1.70;;
9759;SDS011;4919;48.792;9.202;2023-05-13T03:21:03;1.50;;;1.40;;
9759;SDS011;4919;48.792;9.202;2023-05-13T03:23:47;1.80;;;1.63;;
9759;SDS011;4919;48.792;9.202;2023-05-13T03:26:32;1.77;;;1.67;;
9759;SDS011;4919;48.792;9.202;2023-05-13T03:29:17;2.27;;;2.07;;
9759;SDS011;4919;48.792;9.202;2023-05-13T03:32:02;2.97;;;1.70;;
9759;SDS011;4919;48.792;9.202;2023-05-13T03:34:47;2.43;;;2.13;;
9759;SDS011;4919;48.792;9.202;2023-05-13T03:37:32;2.43;;;2.00;;
9759;SDS011;4919;48.792;9.202;2023-05-13T03:40:17;2.43;;;1.90;;
9759;SDS011;4919;48.792;9.202;2023-05-13T03:43:02;1.97;;;1.77;;
9759;SDS011;4919;48.792;9.202;2023-05-13T03:45:47;2.10;;;1.90;;
9759;SDS011;4919;48.792;9.202;2023-05-13T03:48:32;1.70;;;1.60;;
9759;SDS011;4919;48.792;9.202;2023-05-13T03:51:17;1.70;;;1.50;;
9759;SDS011;4919;48.792;9.202;2023-05-13T03:54:02;1.97;;;1.73;;
9759;SDS011;4919;48.792;9.202;2023-05-13T03:56:47;1.80;;;1.50;;
9759;SDS011;4919;48.792;9.202;2023-05-13T03:59:31;2.37;;;1.90;;
9759;SDS011;4919;48.792;9.202;2023-05-13T04:02:17;1.80;;;1.70;;
9759;SDS011;4919;48.792;9.202;2023-05-13T04:05:01;2.57;;;1.90;;
9759;SDS011;4919;48.792;9.202;2023-05-13T04:07:46;2.33;;;1.90;;
9759;SDS011;4919;48.792;9.202;2023-05-13T04:10:31;1.47;;;1.37;;
9759;SDS011;4919;48.792;9.202;2023-05-13T04:13:16;2.03;;;1.80;;
9759;SDS011;4919;48.792;9.202;2023-05-13T04:16:01;1.87;;;1.53;;
9759;SDS011;4919;48.792;9.202;2023-05-13T04:18:46;1.70;;;1.60;;
9759;SDS011;4919;48.792;9.202;2023-05-13T04:21:31;1.90;;;1.80;;
9759;SDS011;4919;48.792;9.202;2023-05-13T04:24:16;1.97;;;1.80;;
9759;SDS011;4919;48.792;9.202;2023-05-13T04:27:01;2.07;;;1.87;;
9759;SDS011;4919;48.792;9.202;2023-05-13T04:29:46;2.00;;;1.80;;
9759;SDS011;4919;48.792;9.202;2023-05-13T04:32:31;2.20;;;1.67;;
9759;SDS011;4919;48.792;9.202;2023-05-13T04:35:16;1.97;;;1.60;;
9759;SDS011;4919;48.792;9.202;2023-05-13T04:38:01;1.90;;;1.60;;
9759;SDS011;4919;48.792;9.202;2023-05-13T04:40:46;2.30;;;1.97;;
9759;SDS011;4919;48.792;9.202;2023-05-13T04:43:31;1.80;;;1.70;;
9759;SDS011;4919;48.792;9.202;2023-05-13T04:46:15;2.00;;;1.80;;
9759;SDS011;4919;48.792;9.202;2023-05-13T04:49:00;1.97;;;1.70;;
9759;SDS011;4919;48.792;9.202;2023-05-13T04:51:45;2.57;;;1.80;;
9759;SDS011;4919;48.792;9.202;2023-05-13T04:54:30;2.37;;;1.80;;
9759;SDS011;4919;48.792;9.202;2023-05-13T04:57:15;3.43;;;2.23;;
9759;SDS011;4919;48.792;9.202;2023-05-13T05:00:00;2.00;;;1.80;;
9759;SDS011;4919;48.792;9.202;2023-05-13T05:02:45;2.60;;;2.00;;
9759;SDS011;4919;48.792;9.202;2023-05-13T05:05:30;2.47;;;1.83;;
9759;SDS011;4919;48.792;9.202;2023-05-13T05:08:15;2.50;;;1.80;;
9759;SDS011;4919;48.792;9.202;2023-05-13T05:11:00;1.80;;;1.70;;
9759;SDS011;4919;48.792;9.202;2023-05-13T05:13:45;2.13;;;1.93;;
9759;SDS011;4919;48.792;9.202;2023-05-13T05:16:30;2.07;;;1.87;;
9759;SDS011;4919;48.792;9.202;2023-05-13T05:19:15;4.40;;;2.20;;
9759;SDS011;4919;48.792;9.202;2023-05-13T05:22:00;2.43;;;1.97;;
9759;SDS011;4919;48.792;9.202;2023-05-13T05:24:44;3.33;;;2.30;;
9759;SDS011;4919;48.792;9.202;2023-05-13T05:27:29;2.53;;;2.03;;
9759;SDS011;4919;48.792;9.202;2023-05-13T05:30:14;2.07;;;1.87;;
9759;SDS011;4919;48.792;9.202;2023-05-13T05:32:59;1.80;;;1.70;;
9759;SDS011;4919;48.792;9.202;2023-05-13T05:35:44;2.00;;;1.80;;
9759;SDS011;4919;48.792;9.202;2023-05-13T05:38:29;2.40;;;1.87;;
9759;SDS011;4919;48.792;9.202;2023-05-13T05:41:14;2.43;;;1.90;;
9759;SDS011;4919;48.792;9.202;2023-05-13T05:43:59;3.00;;;2.17;;
9759;SDS011;4919;48.792;9.202;2023-05-13T05:46:44;1.80;;;1.70;;
9759;SDS011;4919;48.792;9.202;2023-05-13T05:49:28;2.13;;;1.80;;
9759;SDS011;4919;48.792;9.202;2023-05-13T05:52:13;2.10;;;1.90;;
9759;SDS011;4919;48.792;9.202;2023-05-13T05:54:58;2.60;;;1.60;;
9759;SDS011;4919;48.792;9.202;2023-05-13T05:57:43;2.17;;;1.97;;
9759;SDS011;4919;48.792;9.202;2023-05-13T06:00:28;5.13;;;2.10;;
9759;SDS011;4919;48.792;9.202;2023-05-13T06:03:13;1.83;;;1.70;;
9759;SDS011;4919;48.792;9.202;2023-05-13T06:05:58;2.00;;;1.80;;
9759;SDS011;4919;48.792;9.202;2023-05-13T06:08:43;3.07;;;1.90;;
9759;SDS011;4919;48.792;9.202;2023-05-13T06:11:28;2.80;;;1.80;;
9759;SDS011;4919;48.792;9.202;2023-05-13T06:14:13;2.43;;;1.90;;
9759;SDS011;4919;48.792;9.202;2023-05-13T06:16:58;2.47;;;1.93;;
9759;SDS011;4919;48.792;9.202;2023-05-13T06:19:43;2.13;;;1.77;;
9759;SDS011;4919;48.792;9.202;2023-05-13T06:22:28;1.97;;;1.87;;
9759;SDS011;4919;48.792;9.202;2023-05-13T06:25:13;2.57;;;1.90;;
9759;SDS011;4919;48.792;9.202;2023-05-13T06:27:58;2.03;;;1.83;;
9759;SDS011;4919;48.792;9.202;2023-05-13T06:30:43;2.20;;;2.00;;
9759;SDS011;4919;48.792;9.202;2023-05-13T06:33:28;1.77;;;1.67;;
9759;SDS011;4919;48.792;9.202;2023-05-13T06:36:13;2.40;;;1.87;;
9759;SDS011;4919;48.792;9.202;2023-05-13T06:38:58;2.27;;;1.70;;
9759;SDS011;4919;48.792;9.202;2023-05-13T06:41:43;2.10;;;1.90;;
9759;SDS011;4919;48.792;9.202;2023-05-13T06:44:28;1.97;;;1.80;;
9759;SDS011;4919;48.792;9.202;2023-05-13T06:47:13;3.33;;;2.07;;
9759;SDS011;4919;48.792;9.202;2023-05-13T06:49:58;1.70;;;1.60;;
9759;SDS011;4919;48.792;9.202;2023-05-13T06:52:42;2.20;;;1.90;;
9759;SDS011;4919;48.792;9.202;2023-05-13T06:55:27;2.03;;;1.60;;
9759;SDS011;4919;48.792;9.202;2023-05-13T06:58:12;1.97;;;1.60;;
9759;SDS011;4919;48.792;9.202;2023-05-13T07:00:57;2.57;;;1.70;;
9759;SDS011;4919;48.792;9.202;2023-05-13T07:03:42;2.50;;;1.80;;
9759;SDS011;4919;48.792;9.202;2023-05-13T07:06:27;1.90;;;1.80;;
9759;SDS011;4919;48.792;9.202;2023-05-13T07:09:12;2.50;;;1.50;;
9759;SDS011;4919;48.792;9.202;2023-05-13T07:11:57;1.70;;;1.50;;
9759;SDS011;4919;48.792;9.202;2023-05-13T07:14:42;1.60;;;1.50;;
9759;SDS011;4919;48.792;9.202;2023-05-13T07:17:27;1.80;;;1.60;;
9759;SDS011;4919;48.792;9.202;2023-05-13T07:20:12;1.83;;;1.70;;
9759;SDS011;4919;48.792;9.202;2023-05-13T07:22:56;2.47;;;1.80;;
9759;SDS011;4919;48.792;9.202;2023-05-13T07:25:41;1.47;;;1.37;;
9759;SDS011;4919;48.792;9.202;2023-05-13T07:28:26;2.37;;;1.60;;
9759;SDS011;4919;48.792;9.202;2023-05-13T07:31:11;1.90;;;1.70;;
9759;SDS011;4919;48.792;9.202;2023-05-13T07:33:56;2.17;;;1.40;;
9759;SDS011;4919;48.792;9.202;2023-05-13T07:36:41;1.40;;;1.30;;
9759;SDS011;4919;48.792;9.202;2023-05-13T07:39:26;1.77;;;1.50;;
9759;SDS011;4919;48.792;9.202;2023-05-13T07:42:11;1.87;;;1.60;;
9759;SDS011;4919;48.792;9.202;2023-05-13T07:44:55;1.57;;;1.47;;
9759;SDS011;4919;48.792;9.202;2023-05-13T07:47:40;1.60;;;1.50;;
9759;SDS011;4919;48.792;9.202;2023-05-13T07:50:25;1.70;;;1.50;;
9759;SDS011;4919;48.792;9.202;2023-05-13T07:53:10;1.63;;;1.53;;
9759;SDS011;4919;48.792;9.202;2023-05-13T07:55:55;1.60;;;1.50;;
9759;SDS011;4919;48.792;9.202;2023-05-13T07:58:40;1.43;;;1.33;;
9759;SDS011;4919;48.792;9.202;2023-05-13T08:01:25;1.17;;;1.17;;
9759;SDS011;4919;48.792;9.202;2023-05-13T08:04:09;1.63;;;1.40;;
9759;SDS011;4919;48.792;9.202;2023-05-13T08:06:54;1.30;;;1.20;;
9759;SDS011;4919;48.792;9.202;2023-05-13T08:09:39;2.80;;;1.23;;
9759;SDS011;4919;48.792;9.202;2023-05-13T08:12:24;1.50;;;1.40;;
9759;SDS011;4919;48.792;9.202;2023-05-13T08:15:09;1.57;;;1.40;;
9759;SDS011;4919;48.792;9.202;2023-05-13T08:17:54;2.10;;;1.50;;
9759;SDS011;4919;48.792;9.202;2023-05-13T08:20:39;2.20;;;1.70;;
9759;SDS011;4919;48.792;9.202;2023-05-13T08:23:23;1.60;;;1.27;;
9759;SDS011;4919;48.792;9.202;2023-05-13T08:26:08;1.70;;;1.60;;
9759;SDS011;4919;48.792;9.202;2023-05-13T08:28:53;2.90;;;1.60;;
9759;SDS011;4919;48.792;9.202;2023-05-13T08:31:38;2.00;;;1.80;;
9759;SDS011;4919;48.792;9.202;2023-05-13T08:34:23;1.60;;;1.50;;
9759;SDS011;4919;48.792;9.202;2023-05-13T08:37:08;1.80;;;1.70;;
9759;SDS011;4919;48.792;9.202;2023-05-13T08:39:53;1.30;;;1.20;;
9759;SDS011;4919;48.792;9.202;2023-05-13T08:42:38;2.43;;;1.80;;
9759;SDS011;4919;48.792;9.202;2023-05-13T08:45:23;1.90;;;1.60;;
9759;SDS011;4919;48.792;9.202;2023-05-13T08:48:13;1.50;;;1.40;;
9759;SDS011;4919;48.792;9.202;2023-05-13T08:50:59;2.07;;;1.60;;
9759;SDS011;4919;48.792;9.202;2023-05-13T08:53:44;2.03;;;1.63;;
9759;SDS011;4919;48.792;9.202;2023-05-13T08:56:30;1.80;;;1.67;;
9759;SDS011;4919;48.792;9.202;2023-05-13T08:59:15;1.70;;;1.60;;
9759;SDS011;4919;48.792;9.202;2023-05-13T09:02:02;1.53;;;1.43;;
9759;SDS011;4919;48.792;9.202;2023-05-13T09:04:49;1.77;;;1.67;;
9759;SDS011;4919;48.792;9.202;2023-05-13T09:07:37;1.93;;;1.80;;
9759;SDS011;4919;48.792;9.202;2023-05-13T09:10:22;1.67;;;1.57;;
9759;SDS011;4919;48.792;9.202;2023-05-13T09:13:07;1.63;;;1.50;;
9759;SDS011;4919;48.792;9.202;2023-05-13T09:15:54;2.47;;;1.50;;
9759;SDS011;4919;48.792;9.202;2023-05-13T09:18:39;1.60;;;1.50;;
9759;SDS011;4919;48.792;9.202;2023-05-13T09:21:26;2.43;;;1.43;;
9759;SDS011;4919;48.792;9.202;2023-05-13T09:24:13;1.73;;;1.63;;
9759;SDS011;4919;48.792;9.202;2023-05-13T09:26:59;1.50;;;1.40;;
9759;SDS011;4919;48.792;9.202;2023-05-13T09:29:44;1.40;;;1.30;;
9759;SDS011;4919;48.792;9.202;2023-05-13T09:32:28;1.50;;;1.40;;
9759;SDS011;4919;48.792;9.202;2023-05-13T09:35:14;1.93;;;1.70;;
9759;SDS011;4919;48.792;9.202;2023-05-13T09:37:59;1.70;;;1.53;;
9759;SDS011;4919;48.792;9.202;2023-05-13T09:40:51;1.80;;;1.70;;
9759;SDS011;4919;48.792;9.202;2023-05-13T09:43:39;1.70;;;1.60;;
9759;SDS011;4919;48.792;9.202;2023-05-13T09:46:25;1.50;;;1.40;;
9759;SDS011;4919;48.792;9.202;2023-05-13T09:49:09;1.40;;;1.30;;
9759;SDS011;4919;48.792;9.202;2023-05-13T09:51:54;1.53;;;1.43;;
9759;SDS011;4919;48.792;9.202;2023-05-13T09:54:39;1.60;;;1.47;;
9759;SDS011;4919;48.792;9.202;2023-05-13T09:57:27;1.57;;;1.47;;
9759;SDS011;4919;48.792;9.202;2023-05-13T10:00:12;1.70;;;1.60;;
9759;SDS011;4919;48.792;9.202;2023-05-13T10:02:57;1.40;;;1.30;;
9759;SDS011;4919;48.792;9.202;2023-05-13T10:05:44;2.07;;;1.60;;
9759;SDS011;4919;48.792;9.202;2023-05-13T10:08:29;1.80;;;1.37;;
9759;SDS011;4919;48.792;9.202;2023-05-13T10:11:14;1.83;;;1.30;;
9759;SDS011;4919;48.792;9.202;2023-05-13T10:14:00;1.53;;;1.43;;
9759;SDS011;4919;48.792;9.202;2023-05-13T10:16:48;1.40;;;1.30;;
9759;SDS011;4919;48.792;9.202;2023-05-13T10:19:35;2.00;;;1.60;;
9759;SDS011;4919;48.792;9.202;2023-05-13T10:22:26;2.03;;;1.73;;
9759;SDS011;4919;48.792;9.202;2023-05-13T10:25:12;1.97;;;1.70;;
9759;SDS011;4919;48.792;9.202;2023-05-13T10:27:57;1.73;;;1.47;;
9759;SDS011;4919;48.792;9.202;2023-05-13T10:30:43;1.67;;;1.40;;
9759;SDS011;4919;48.792;9.202;2023-05-13T10:33:28;1.40;;;1.30;;
9759;SDS011;4919;48.792;9.202;2023-05-13T10:44:56;1.30;;;1.20;;
9759;SDS011;4919;48.792;9.202;2023-05-13T10:47:41;1.40;;;1.30;;
9759;SDS011;4919;48.792;9.202;2023-05-13T10:50:26;1.40;;;1.30;;
9759;SDS011;4919;48.792;9.202;2023-05-13T10:53:17;1.40;;;1.30;;
9759;SDS011;4919;48.792;9.202;2023-05-13T10:56:03;1.50;;;1.40;;
9759;SDS011;4919;48.792;9.202;2023-05-13T10:59:04;1.30;;;1.20;;
9759;SDS011;4919;48.792;9.202;2023-05-13T11:01:49;2.03;;;1.53;;
9759;SDS011;4919;48.792;9.202;2023-05-13T11:04:34;1.63;;;1.50;;
9759;SDS011;4919;48.792;9.202;2023-05-13T11:10:41;1.53;;;1.43;;
9759;SDS011;4919;48.792;9.202;2023-05-13T11:13:35;1.50;;;1.40;;
9759;SDS011;4919;48.792;9.202;2023-05-13T11:16:21;3.17;;;1.50;;
9759;SDS011;4919;48.792;9.202;2023-05-13T11:19:08;1.60;;;1.30;;
9759;SDS011;4919;48.792;9.202;2023-05-13T11:22:14;1.60;;;1.50;;
9759;SDS011;4919;48.792;9.202;2023-05-13T11:27:49;1.73;;;1.40;;
9759;SDS011;4919;48.792;9.202;2023-05-13T11:30:35;2.40;;;1.70;;
9759;SDS011;4919;48.792;9.202;2023-05-13T11:33:20;1.47;;;1.37;;
9759;SDS011;4919;48.792;9.202;2023-05-13T11:36:05;2.77;;;1.47;;
9759;SDS011;4919;48.792;9.202;2023-05-13T11:38:51;1.50;;;1.40;;
9759;SDS011;4919;48.792;9.202;2023-05-13T11:41:37;1.50;;;1.30;;
9759;SDS011;4919;48.792;9.202;2023-05-13T11:44:32;1.30;;;1.20;;
9759;SDS011;4919;48.792;9.202;2023-05-13T11:47:24;1.30;;;1.20;;
9759;SDS011;4919;48.792;9.202;2023-05-13T11:53:03;1.50;;;1.33;;
9759;SDS011;4919;48.792;9.202;2023-05-13T11:55:48;1.30;;;1.20;;
9759;SDS011;4919;48.792;9.202;2023-05-13T11:58:33;1.30;;;1.20;;
9759;SDS011;4919;48.792;9.202;2023-05-13T12:01:18;1.40;;;1.30;;
9759;SDS011;4919;48.792;9.202;2023-05-13T12:04:03;1.40;;;1.30;;
9759;SDS011;4919;48.792;9.202;2023-05-13T12:06:48;1.43;;;1.27;;
9759;SDS011;4919;48.792;9.202;2023-05-13T12:09:33;1.10;;;1.10;;
9759;SDS011;4919;48.792;9.202;2023-05-13T12:12:18;1.70;;;1.10;;
9759;SDS011;4919;48.792;9.202;2023-05-13T12:15:05;1.40;;;1.30;;
9759;SDS011;4919;48.792;9.202;2023-05-13T12:17:51;1.30;;;1.20;;
9759;SDS011;4919;48.792;9.202;2023-05-13T12:20:36;1.37;;;1.27;;
9759;SDS011;4919;48.792;9.202;2023-05-13T12:23:21;1.30;;;1.20;;
9759;SDS011;4919;48.792;9.202;2023-05-13T12:26:06;1.60;;;1.50;;
9759;SDS011;4919;48.792;9.202;2023-05-13T12:28:58;1.50;;;1.40;;
9759;SDS011;4919;48.792;9.202;2023-05-13T12:31:50;3.53;;;1.50;;
9759;SDS011;4919;48.792;9.202;2023-05-13T12:34:49;1.40;;;1.30;;
9759;SDS011;4919;48.792;9.202;2023-05-13T12:37:34;1.20;;;1.10;;
9759;SDS011;4919;48.792;9.202;2023-05-13T12:40:19;1.80;;;1.30;;
9759;SDS011;4919;48.792;9.202;2023-05-13T12:43:04;1.80;;;1.70;;
9759;SDS011;4919;48.792;9.202;2023-05-13T12:45:51;1.43;;;1.33;;
9759;SDS011;4919;48.792;9.202;2023-05-13T12:48:36;1.50;;;1.40;;
9759;SDS011;4919;48.792;9.202;2023-05-13T12:51:21;1.43;;;1.33;;
9759;SDS011;4919;48.792;9.202;2023-05-13T12:54:06;1.40;;;1.30;;
9759;SDS011;4919;48.792;9.202;2023-05-13T12:56:51;1.20;;;1.20;;
9759;SDS011;4919;48.792;9.202;2023-05-13T12:59:36;1.50;;;1.40;;
9759;SDS011;4919;48.792;9.202;2023-05-13T13:02:20;1.40;;;1.30;;
9759;SDS011;4919;48.792;9.202;2023-05-13T13:05:05;1.40;;;1.30;;
9759;SDS011;4919;48.792;9.202;2023-05-13T13:07:51;1.40;;;1.30;;
9759;SDS011;4919;48.792;9.202;2023-05-13T13:10:36;1.43;;;1.33;;
9759;SDS011;4919;48.792;9.202;2023-05-13T13:13:21;2.00;;;1.20;;
9759;SDS011;4919;48.792;9.202;2023-05-13T13:16:06;1.60;;;1.50;;
9759;SDS011;4919;48.792;9.202;2023-05-13T13:18:51;1.63;;;1.50;;
9759;SDS011;4919;48.792;9.202;2023-05-13T13:21:36;1.40;;;1.30;;
9759;SDS011;4919;48.792;9.202;2023-05-13T13:24:20;3.03;;;1.60;;
9759;SDS011;4919;48.792;9.202;2023-05-13T13:27:05;1.50;;;1.40;;
9759;SDS011;4919;48.792;9.202;2023-05-13T13:29:50;1.50;;;1.40;;
9759;SDS011;4919;48.792;9.202;2023-05-13T13:32:35;2.47;;;1.37;;
9759;SDS011;4919;48.792;9.202;2023-05-13T13:35:20;1.50;;;1.40;;
9759;SDS011;4919;48.792;9.202;2023-05-13T13:38:05;1.57;;;1.47;;
9759;SDS011;4919;48.792;9.202;2023-05-13T13:40:50;1.40;;;1.30;;
9759;SDS011;4919;48.792;9.202;2023-05-13T13:43:35;1.80;;;1.50;;
9759;SDS011;4919;48.792;9.202;2023-05-13T13:46:20;1.37;;;1.30;;
9759;SDS011;4919;48.792;9.202;2023-05-13T13:49:05;1.77;;;1.43;;
9759;SDS011;4919;48.792;9.202;2023-05-13T13:51:53;1.70;;;1.60;;
9759;SDS011;4919;48.792;9.202;2023-05-13T13:54:38;1.50;;;1.40;;
9759;SDS011;4919;48.792;9.202;2023-05-13T13:57:23;1.67;;;1.57;;
9759;SDS011;4919;48.792;9.202;2023-05-13T14:00:08;1.63;;;1.40;;
9759;SDS011;4919;48.792;9.202;2023-05-13T14:02:53;1.60;;;1.50;;
9759;SDS011;4919;48.792;9.202;2023-05-13T14:05:38;1.90;;;1.50;;
9759;SDS011;4919;48.792;9.202;2023-05-13T14:08:23;1.50;;;1.40;;
9759;SDS011;4919;48.792;9.202;2023-05-13T14:11:08;2.07;;;1.50;;
9759;SDS011;4919;48.792;9.202;2023-05-13T14:13:53;1.80;;;1.67;;
9759;SDS011;4919;48.792;9.202;2023-05-13T14:16:38;2.07;;;1.60;;
9759;SDS011;4919;48.792;9.202;2023-05-13T14:19:23;1.67;;;1.57;;
9759;SDS011;4919;48.792;9.202;2023-05-13T14:22:08;1.60;;;1.50;;
9759;SDS011;4919;48.792;9.202;2023-05-13T14:24:53;1.50;;;1.40;;
9759;SDS011;4919;48.792;9.202;2023-05-13T14:27:38;2.00;;;1.60;;
9759;SDS011;4919;48.792;9.202;2023-05-13T14:30:23;2.20;;;1.50;;
9759;SDS011;4919;48.792;9.202;2023-05-13T14:33:08;1.73;;;1.30;;
9759;SDS011;4919;48.792;9.202;2023-05-13T14:35:52;1.40;;;1.30;;
9759;SDS011;4919;48.792;9.202;2023-05-13T14:38:38;1.70;;;1.60;;
9759;SDS011;4919;48.792;9.202;2023-05-13T14:41:23;1.70;;;1.60;;
9759;SDS011;4919;48.792;9.202;2023-05-13T14:44:07;1.70;;;1.60;;
9759;SDS011;4919;48.792;9.202;2023-05-13T14:46:52;1.53;;;1.43;;
9759;SDS011;4919;48.792;9.202;2023-05-13T14:49:37;1.43;;;1.33;;
9759;SDS011;4919;48.792;9.202;2023-05-13T14:52:22;2.23;;;1.83;;
9759;SDS011;4919;48.792;9.202;2023-05-13T14:55:07;1.60;;;1.50;;
9759;SDS011;4919;48.792;9.202;2023-05-13T14:57:53;1.70;;;1.50;;
9759;SDS011;4919;48.792;9.202;2023-05-13T15:00:37;1.80;;;1.70;;
9759;SDS011;4919;48.792;9.202;2023-05-13T15:03:22;1.73;;;1.60;;
9759;SDS011;4919;48.792;9.202;2023-05-13T15:06:07;1.53;;;1.40;;
9759;SDS011;4919;48.792;9.202;2023-05-13T15:08:52;1.60;;;1.47;;
9759;SDS011;4919;48.792;9.202;2023-05-13T15:11:37;1.63;;;1.50;;
9759;SDS011;4919;48.792;9.202;2023-05-13T15:14:22;1.50;;;1.40;;
9759;SDS011;4919;48.792;9.202;2023-05-13T15:17:07;2.00;;;1.80;;
9759;SDS011;4919;48.792;9.202;2023-05-13T15:19:52;1.60;;;1.50;;
9759;SDS011;4919;48.792;9.202;2023-05-13T15:22:36;1.70;;;1.60;;
9759;SDS011;4919;48.792;9.202;2023-05-13T15:25:21;1.67;;;1.57;;
9759;SDS011;4919;48.792;9.202;2023-05-13T15:28:07;1.67;;;1.57;;
9759;SDS011;4919;48.792;9.202;2023-05-13T15:30:51;1.50;;;1.40;;
9759;SDS011;4919;48.792;9.202;2023-05-13T15:33:36;1.63;;;1.53;;
9759;SDS011;4919;48.792;9.202;2023-05-13T15:36:21;2.00;;;1.50;;
9759;SDS011;4919;48.792;9.202;2023-05-13T15:39:06;1.90;;;1.70;;
9759;SDS011;4919;48.792;9.202;2023-05-13T15:41:51;2.40;;;1.70;;
9759;SDS011;4919;48.792;9.202;2023-05-13T15:44:36;1.63;;;1.53;;
9759;SDS011;4919;48.792;9.202;2023-05-13T15:47:21;2.10;;;1.90;;
9759;SDS011;4919;48.792;9.202;2023-05-13T15:50:05;2.33;;;2.13;;
9759;SDS011;4919;48.792;9.202;2023-05-13T15:52:50;2.53;;;2.13;;
9759;SDS011;4919;48.792;9.202;2023-05-13T15:55:35;3.90;;;2.93;;
9759;SDS011;4919;48.792;9.202;2023-05-13T15:58:20;4.97;;;3.33;;
9759;SDS011;4919;48.792;9.202;2023-05-13T16:01:05;2.47;;;2.27;;
9759;SDS011;4919;48.792;9.202;2023-05-13T16:03:50;2.67;;;2.20;;
9759;SDS011;4919;48.792;9.202;2023-05-13T16:06:34;4.27;;;3.07;;
9759;SDS011;4919;48.792;9.202;2023-05-13T16:09:19;3.10;;;2.27;;
9759;SDS011;4919;48.792;9.202;2023-05-13T16:12:04;2.50;;;1.90;;
9759;SDS011;4919;48.792;9.202;2023-05-13T16:14:49;2.33;;;1.83;;
9759;SDS011;4919;48.792;9.202;2023-05-13T16:17:34;2.40;;;1.53;;
9759;SDS011;4919;48.792;9.202;2023-05-13T16:20:19;1.50;;;1.40;;
9759;SDS011;4919;48.792;9.202;2023-05-13T16:23:03;1.73;;;1.60;;
9759;SDS011;4919;48.792;9.202;2023-05-13T16:25:48;1.60;;;1.47;;
9759;SDS011;4919;48.792;9.202;2023-05-13T16:28:33;1.60;;;1.50;;
9759;SDS011;4919;48.792;9.202;2023-05-13T16:31:18;2.03;;;1.80;;
9759;SDS011;4919;48.792;9.202;2023-05-13T16:34:03;2.33;;;1.80;;
9759;SDS011;4919;48.792;9.202;2023-05-13T16:36:48;2.03;;;1.60;;
9759;SDS011;4919;48.792;9.202;2023-05-13T16:39:32;1.70;;;1.60;;
9759;SDS011;4919;48.792;9.202;2023-05-13T16:42:17;1.77;;;1.60;;
9759;SDS011;4919;48.792;9.202;2023-05-13T16:45:02;1.83;;;1.37;;
9759;SDS011;4919;48.792;9.202;2023-05-13T16:47:47;2.50;;;1.70;;
9759;SDS011;4919;48.792;9.202;2023-05-13T16:50:32;1.70;;;1.60;;
9759;SDS011;4919;48.792;9.202;2023-05-13T16:53:17;1.93;;;1.70;;
9759;SDS011;4919;48.792;9.202;2023-05-13T16:56:02;3.13;;;1.67;;
9759;SDS011;4919;48.792;9.202;2023-05-13T16:58:47;1.43;;;1.33;;
9759;SDS011;4919;48.792;9.202;2023-05-13T17:01:32;1.80;;;1.70;;
9759;SDS011;4919;48.792;9.202;2023-05-13T17:04:17;1.43;;;1.33;;
9759;SDS011;4919;48.792;9.202;2023-05-13T17:07:02;1.60;;;1.50;;
9759;SDS011;4919;48.792;9.202;2023-05-13T17:09:47;1.67;;;1.50;;
9759;SDS011;4919;48.792;9.202;2023-05-13T17:12:32;2.00;;;1.77;;
9759;SDS011;4919;48.792;9.202;2023-05-13T17:15:17;1.93;;;1.83;;
9759;SDS011;4919;48.792;9.202;2023-05-13T17:18:02;2.27;;;2.07;;
9759;SDS011;4919;48.792;9.202;2023-05-13T17:20:47;1.67;;;1.57;;
9759;SDS011;4919;48.792;9.202;2023-05-13T17:23:32;2.00;;;1.80;;
9759;SDS011;4919;48.792;9.202;2023-05-13T17:26:20;2.43;;;1.90;;
9759;SDS011;4919;48.792;9.202;2023-05-13T17:29:05;2.67;;;2.07;;